Time;durP1;ratioP1;P1;durP2;ratioP2;P2;SDS_P1;SDS_P2;PMS_P1;PMS_P2;Temp;Humidity;BMP_temperature;BMP_pressure;BME280_temperature;BME280_humidity;BME280_pressure;Samples;Min_cycle;Max_cycle;Signal;HPM_P1;HPM_P2
2023/10/29 00:00:56;;;;;;;1.10;0.50;;;12.30;1.00;;;;;;5133847;27;20429;-58
2023/10/29 00:03:23;;;;;;;1.00;0.50;;;12.30;1.00;;;;;;5134845;27;20881;-58
2023/10/29 00:05:50;;;;;;;1.30;0.50;;;12.40;1.00;;;;;;5134295;27;20422;-58
2023/10/29 00:08:17;;;;;;;0.80;0.50;;;12.30;1.00;;;;;;5134704;27;20418;-57
2023/10/29 00:10:46;;;;;;;1.90;0.50;;;12.30;1.00;;;;;;5134925;27;20414;-58
2023/10/29 00:13:13;;;;;;;0.80;0.47;;;12.30;1.00;;;;;;5138154;27;20861;-58
2023/10/29 00:15:40;;;;;;;2.00;0.50;;;12.30;1.00;;;;;;5138799;27;20423;-58
2023/10/29 00:18:08;;;;;;;1.37;0.50;;;12.30;1.00;;;;;;5137479;27;20469;-59
2023/10/29 00:20:35;;;;;;;1.00;0.50;;;12.30;1.00;;;;;;5136423;27;20720;-58
2023/10/29 00:23:02;;;;;;;0.90;0.50;;;12.30;1.00;;;;;;5136918;27;20414;-58
2023/10/29 00:25:29;;;;;;;1.10;0.50;;;12.20;1.00;;;;;;5137711;27;20403;-58
2023/10/29 00:27:58;;;;;;;0.70;0.40;;;12.20;1.00;;;;;;5138048;27;20422;-58
2023/10/29 00:30:25;;;;;;;0.80;0.50;;;12.20;1.00;;;;;;5138002;27;20427;-58
2023/10/29 00:32:52;;;;;;;1.30;0.50;;;12.20;1.00;;;;;;5136685;27;20430;-58
2023/10/29 00:35:19;;;;;;;1.73;0.50;;;12.20;1.00;;;;;;5135905;27;20723;-57
2023/10/29 00:37:46;;;;;;;0.90;0.50;;;12.20;1.00;;;;;;5135449;27;20825;-56
2023/10/29 00:40:14;;;;;;;1.00;0.50;;;12.20;1.00;;;;;;5136542;27;20417;-56
2023/10/29 00:42:41;;;;;;;0.80;0.40;;;12.20;1.00;;;;;;5136368;27;20446;-57
2023/10/29 00:45:10;;;;;;;0.70;0.30;;;12.20;1.00;;;;;;5136716;27;20422;-57
2023/10/29 00:47:38;;;;;;;1.00;0.45;;;12.10;1.00;;;;;;5136523;27;20442;-58
2023/10/29 00:50:06;;;;;;;1.17;0.40;;;12.20;1.00;;;;;;5135705;27;20411;-58
2023/10/29 00:52:34;;;;;;;0.80;0.40;;;12.20;1.00;;;;;;5135886;27;20410;-58
2023/10/29 00:55:02;;;;;;;1.40;0.40;;;12.20;1.00;;;;;;5136907;27;20430;-58
2023/10/29 00:57:30;;;;;;;1.20;0.40;;;12.20;1.00;;;;;;5136515;27;20431;-58
2023/10/29 00:59:57;;;;;;;1.20;0.40;;;12.20;1.00;;;;;;5137022;27;20425;-58
2023/10/29 01:02:31;;;;;;;1.00;0.40;;;12.20;1.00;;;;;;5136696;27;20429;-58
2023/10/29 01:04:58;;;;;;;1.00;0.40;;;12.20;1.00;;;;;;5136207;27;20786;-58
2023/10/29 01:07:25;;;;;;;0.60;0.32;;;12.20;1.00;;;;;;5135176;27;20476;-58
2023/10/29 01:09:53;;;;;;;1.00;0.30;;;12.20;1.00;;;;;;5135349;27;20838;-58
2023/10/29 01:12:20;;;;;;;0.80;0.40;;;12.20;1.00;;;;;;5135693;27;20434;-58
2023/10/29 01:14:47;;;;;;;0.70;0.40;;;12.20;1.00;;;;;;5135082;27;20422;-58
2023/10/29 01:17:14;;;;;;;2.50;0.50;;;12.30;1.00;;;;;;5134933;27;20445;-57
2023/10/29 01:19:43;;;;;;;1.00;0.32;;;12.30;1.00;;;;;;5136633;27;20722;-58
2023/10/29 01:22:10;;;;;;;0.90;0.40;;;12.30;1.00;;;;;;5137467;27;20421;-56
2023/10/29 01:24:38;;;;;;;0.50;0.30;;;12.40;1.00;;;;;;5136967;27;20454;-57
2023/10/29 01:27:06;;;;;;;1.40;0.40;;;12.40;1.00;;;;;;5136765;27;20422;-57
2023/10/29 01:29:33;;;;;;;1.63;0.38;;;12.40;1.00;;;;;;5136617;27;20449;-58
2023/10/29 01:32:00;;;;;;;0.88;0.30;;;12.40;1.00;;;;;;5136448;27;20417;-58
2023/10/29 01:34:27;;;;;;;0.80;0.30;;;12.50;1.00;;;;;;5136824;27;20764;-56
2023/10/29 01:36:55;;;;;;;0.88;0.40;;;12.40;1.00;;;;;;5136589;27;20438;-58
2023/10/29 01:39:22;;;;;;;0.50;0.30;;;12.40;1.00;;;;;;5136766;27;20411;-57
2023/10/29 01:41:55;;;;;;;0.70;0.30;;;12.40;1.00;;;;;;5136987;27;20421;-57
2023/10/29 01:44:22;;;;;;;0.98;0.40;;;12.40;1.00;;;;;;5136556;27;20528;-59
2023/10/29 01:46:49;;;;;;;0.50;0.30;;;12.50;1.00;;;;;;5136495;27;20410;-57
2023/10/29 01:49:16;;;;;;;0.60;0.30;;;12.50;1.00;;;;;;5136638;27;20505;-57
2023/10/29 01:51:43;;;;;;;0.52;0.30;;;12.50;1.00;;;;;;5135760;27;20422;-58
2023/10/29 01:54:12;;;;;;;0.60;0.30;;;12.50;1.00;;;;;;5135893;27;20428;-58
2023/10/29 01:56:39;;;;;;;0.60;0.30;;;12.50;1.00;;;;;;5134085;27;20438;-59
2023/10/29 01:59:06;;;;;;;0.60;0.30;;;12.60;1.00;;;;;;5134147;27;20422;-58
2023/10/29 02:01:34;;;;;;;0.60;0.30;;;12.60;1.00;;;;;;5134300;27;20415;-58
2023/10/29 02:04:01;;;;;;;0.50;0.30;;;12.60;1.00;;;;;;5134548;27;20767;-58
2023/10/29 02:06:28;;;;;;;0.60;0.30;;;12.60;1.00;;;;;;5134867;27;20418;-58
2023/10/29 02:08:55;;;;;;;0.60;0.30;;;12.70;1.00;;;;;;5134926;27;20429;-58
2023/10/29 02:11:23;;;;;;;0.50;0.30;;;12.60;1.00;;;;;;5135492;27;20431;-59
2023/10/29 02:13:50;;;;;;;0.57;0.30;;;12.60;1.00;;;;;;5136055;27;20655;-59
2023/10/29 02:16:17;;;;;;;0.60;0.30;;;12.70;1.00;;;;;;5135733;27;20442;-58
2023/10/29 02:18:45;;;;;;;0.50;0.30;;;12.60;1.00;;;;;;5135407;27;20419;-58
2023/10/29 02:21:12;;;;;;;0.60;0.30;;;12.60;1.00;;;;;;5135347;27;20767;-58
2023/10/29 02:23:40;;;;;;;0.60;0.20;;;12.60;1.00;;;;;;5135062;27;20422;-58
2023/10/29 02:26:07;;;;;;;0.50;0.20;;;12.60;1.00;;;;;;5134696;27;20727;-58
2023/10/29 02:28:35;;;;;;;1.20;0.30;;;12.50;1.00;;;;;;5134321;27;20833;-58
2023/10/29 02:31:02;;;;;;;0.80;0.30;;;12.50;1.00;;;;;;5135608;27;20614;-58
2023/10/29 02:33:30;;;;;;;0.90;0.30;;;12.50;1.00;;;;;;5133784;27;20430;-59
2023/10/29 02:35:57;;;;;;;0.60;0.30;;;12.50;1.00;;;;;;5131875;27;20740;-59
2023/10/29 02:38:24;;;;;;;0.50;0.30;;;12.50;1.00;;;;;;5133625;27;20504;-59
2023/10/29 02:40:54;;;;;;;0.50;0.22;;;12.60;1.00;;;;;;5133858;27;20414;-58
2023/10/29 02:43:21;;;;;;;0.67;0.30;;;12.60;1.00;;;;;;5132791;27;20450;-58
2023/10/29 02:45:48;;;;;;;0.63;0.30;;;12.60;1.00;;;;;;5133244;27;20426;-58
2023/10/29 02:48:16;;;;;;;0.50;0.30;;;12.60;1.00;;;;;;5133929;27;20823;-59
2023/10/29 02:50:43;;;;;;;0.60;0.30;;;12.60;1.00;;;;;;5134447;27;20786;-58
2023/10/29 02:53:10;;;;;;;0.65;0.30;;;12.70;1.00;;;;;;5134945;27;20411;-58
2023/10/29 02:55:37;;;;;;;1.40;0.30;;;12.60;1.00;;;;;;5135128;27;20421;-58
2023/10/29 02:58:06;;;;;;;0.50;0.30;;;12.60;1.00;;;;;;5135523;27;20535;-58
2023/10/29 03:00:33;;;;;;;0.90;0.30;;;12.60;1.00;;;;;;5135060;27;20425;-59
2023/10/29 03:03:00;;;;;;;0.88;0.30;;;12.50;1.00;;;;;;5135333;27;20426;-58
2023/10/29 03:05:27;;;;;;;0.47;0.20;;;12.50;1.00;;;;;;5135382;27;20418;-58
2023/10/29 03:07:54;;;;;;;0.60;0.30;;;12.50;1.00;;;;;;5135637;27;20406;-58
2023/10/29 03:10:21;;;;;;;1.23;0.30;;;12.40;1.00;;;;;;5135029;27;20440;-58
2023/10/29 03:12:48;;;;;;;0.60;0.30;;;12.40;1.00;;;;;;5134710;27;20430;-58
2023/10/29 03:15:18;;;;;;;0.70;0.30;;;12.40;1.00;;;;;;5134830;27;20422;-57
2023/10/29 03:17:45;;;;;;;0.50;0.30;;;12.40;1.00;;;;;;5134321;27;20437;-58
2023/10/29 03:20:12;;;;;;;0.50;0.22;;;12.50;1.00;;;;;;5134712;27;20422;-60
2023/10/29 03:22:39;;;;;;;0.50;0.20;;;12.50;1.00;;;;;;5135246;27;20407;-59
2023/10/29 03:25:08;;;;;;;0.77;0.30;;;12.50;1.00;;;;;;5134937;27;20501;-58
2023/10/29 03:27:35;;;;;;;1.20;0.30;;;12.40;1.00;;;;;;5135596;27;20830;-59
2023/10/29 03:30:02;;;;;;;1.10;0.30;;;12.40;1.00;;;;;;5135049;27;20419;-59
2023/10/29 03:32:30;;;;;;;0.80;0.30;;;12.40;1.00;;;;;;5134925;27;20424;-59
2023/10/29 03:34:57;;;;;;;0.50;0.30;;;12.40;1.00;;;;;;5134622;27;20439;-58
2023/10/29 03:37:25;;;;;;;0.60;0.25;;;12.40;1.00;;;;;;5135003;27;20457;-58
2023/10/29 03:39:52;;;;;;;0.55;0.20;;;12.40;1.00;;;;;;5134516;27;20861;-58
2023/10/29 03:42:19;;;;;;;0.60;0.40;;;12.40;1.00;;;;;;5135589;27;20418;-58
2023/10/29 03:44:46;;;;;;;0.50;0.30;;;12.30;1.00;;;;;;5134275;27;20733;-58
2023/10/29 03:47:14;;;;;;;0.90;0.30;;;12.30;1.00;;;;;;5134585;27;20402;-58
2023/10/29 03:49:44;;;;;;;0.52;0.30;;;12.20;1.00;;;;;;5134515;27;20411;-57
2023/10/29 03:52:11;;;;;;;0.50;0.30;;;12.20;1.00;;;;;;5135023;27;20452;-59
2023/10/29 03:54:38;;;;;;;0.50;0.22;;;12.10;1.00;;;;;;5135339;27;20421;-59
2023/10/29 03:57:05;;;;;;;0.60;0.30;;;12.10;1.00;;;;;;5134978;27;20430;-59
2023/10/29 03:59:32;;;;;;;0.60;0.30;;;12.00;1.00;;;;;;5134316;27;20426;-59
2023/10/29 04:01:59;;;;;;;0.60;0.30;;;11.90;1.00;;;;;;5133865;27;20410;-59
2023/10/29 04:04:27;;;;;;;0.50;0.30;;;11.90;1.00;;;;;;5134650;27;20414;-58
2023/10/29 04:06:55;;;;;;;0.57;0.30;;;11.90;1.00;;;;;;5134552;27;20427;-59
2023/10/29 04:09:22;;;;;;;0.50;0.20;;;11.90;1.00;;;;;;5134459;27;20418;-58
2023/10/29 04:11:50;;;;;;;1.00;0.30;;;11.90;1.00;;;;;;5134246;27;20787;-59
2023/10/29 04:14:17;;;;;;;0.93;0.22;;;11.90;1.00;;;;;;5134480;27;20421;-59
2023/10/29 04:16:44;;;;;;;0.57;0.30;;;12.00;1.00;;;;;;5134708;27;20429;-59
2023/10/29 04:19:11;;;;;;;0.50;0.30;;;12.00;1.00;;;;;;5134405;27;20706;-58
2023/10/29 04:21:38;;;;;;;0.50;0.20;;;12.10;1.00;;;;;;5134482;27;20430;-58
2023/10/29 04:24:07;;;;;;;1.05;0.30;;;12.00;1.00;;;;;;5136347;27;20875;-59
2023/10/29 04:26:34;;;;;;;0.80;0.20;;;12.00;1.00;;;;;;5138142;27;20427;-59
2023/10/29 04:29:01;;;;;;;1.00;0.22;;;12.10;1.00;;;;;;5137424;27;20479;-58
2023/10/29 04:31:28;;;;;;;0.50;0.20;;;12.10;1.00;;;;;;5137474;27;20422;-58
2023/10/29 04:33:55;;;;;;;0.40;0.28;;;12.20;1.00;;;;;;5138098;27;20703;-59
2023/10/29 04:36:23;;;;;;;0.60;0.20;;;12.20;1.00;;;;;;5138209;27;20423;-59
2023/10/29 04:38:50;;;;;;;0.50;0.20;;;12.40;99.90;;;;;;5137361;27;20421;-58
2023/10/29 04:41:19;;;;;;;0.50;0.20;;;12.50;99.90;;;;;;5137384;27;20411;-57
2023/10/29 04:43:46;;;;;;;0.43;0.20;;;12.50;99.90;;;;;;5136895;27;20515;-59
2023/10/29 04:46:13;;;;;;;0.50;0.20;;;12.50;1.00;;;;;;5137315;27;20418;-59
2023/10/29 04:48:41;;;;;;;0.57;0.20;;;12.50;99.90;;;;;;5138144;27;20751;-59
2023/10/29 04:51:09;;;;;;;0.60;0.20;;;12.50;99.90;;;;;;5137455;27;20507;-59
2023/10/29 04:53:37;;;;;;;0.90;0.20;;;12.50;99.90;;;;;;5137555;27;20422;-59
2023/10/29 04:56:05;;;;;;;0.60;0.20;;;12.50;99.90;;;;;;5137747;27;20414;-59
2023/10/29 04:58:34;;;;;;;0.50;0.20;;;12.50;99.90;;;;;;5137277;27;20542;-58
2023/10/29 05:01:01;;;;;;;0.40;0.20;;;12.50;1.00;;;;;;5136336;27;20423;-59
2023/10/29 05:03:28;;;;;;;0.50;0.20;;;12.50;99.90;;;;;;5137407;27;20427;-59
2023/10/29 05:05:55;;;;;;;0.40;0.30;;;12.50;99.90;;;;;;5138036;27;20453;-59
2023/10/29 05:08:22;;;;;;;0.40;0.20;;;12.50;99.90;;;;;;5137404;27;20835;-59
2023/10/29 05:10:49;;;;;;;0.80;0.20;;;12.50;99.90;;;;;;5137160;27;20418;-58
2023/10/29 05:13:16;;;;;;;0.90;0.30;;;12.50;99.90;;;;;;5137137;27;20418;-58
2023/10/29 05:15:45;;;;;;;1.00;0.30;;;12.50;99.90;;;;;;5137370;27;20418;-57
2023/10/29 05:18:12;;;;;;;0.50;0.30;;;12.50;99.90;;;;;;5137653;27;20830;-59
2023/10/29 05:20:39;;;;;;;0.88;0.20;;;12.50;1.00;;;;;;5136896;27;20426;-59
2023/10/29 05:23:07;;;;;;;0.70;0.30;;;12.50;99.90;;;;;;5136688;27;20417;-59
2023/10/29 05:25:36;;;;;;;0.52;0.20;;;12.40;99.90;;;;;;5136432;27;20478;-59
2023/10/29 05:28:03;;;;;;;0.50;0.30;;;12.40;99.90;;;;;;5137000;27;20418;-59
2023/10/29 05:30:30;;;;;;;0.45;0.20;;;12.40;99.90;;;;;;5135810;27;20783;-59
2023/10/29 05:32:58;;;;;;;0.80;0.20;;;12.40;99.90;;;;;;5135944;27;20430;-60
2023/10/29 05:35:25;;;;;;;0.40;0.20;;;12.40;99.90;;;;;;5135968;27;20422;-60
2023/10/29 05:37:52;;;;;;;0.33;0.20;;;12.50;1.00;;;;;;5136970;27;20922;-59
2023/10/29 05:40:19;;;;;;;0.50;0.20;;;12.60;1.00;;;;;;5136583;27;20413;-59
2023/10/29 05:42:46;;;;;;;0.40;0.20;;;12.60;1.00;;;;;;5136321;27;20419;-59
2023/10/29 05:45:14;;;;;;;0.40;0.20;;;12.60;1.00;;;;;;5136872;27;20483;-59
2023/10/29 05:47:41;;;;;;;0.40;0.20;;;12.60;1.00;;;;;;5136669;27;20427;-59
2023/10/29 05:50:11;;;;;;;0.60;0.20;;;12.70;1.00;;;;;;5136831;27;20740;-58
2023/10/29 05:52:38;;;;;;;0.70;0.25;;;12.70;65.70;;;;;;5136118;27;20848;-59
2023/10/29 05:55:06;;;;;;;0.50;0.30;;;12.80;1.00;;;;;;5136263;27;20421;-59
2023/10/29 05:57:33;;;;;;;0.50;0.20;;;12.90;99.90;;;;;;5136802;27;20857;-58
2023/10/29 06:00:00;;;;;;;1.00;0.30;;;12.90;1.00;;;;;;5135197;27;20422;-59
2023/10/29 06:02:27;;;;;;;0.90;0.20;;;12.90;1.00;;;;;;5134882;27;20422;-58
2023/10/29 06:04:54;;;;;;;0.43;0.20;;;12.90;99.90;;;;;;5134604;27;20867;-58
2023/10/29 06:07:23;;;;;;;0.40;0.20;;;12.90;99.90;;;;;;5134937;27;20418;-58
2023/10/29 06:09:50;;;;;;;0.60;0.20;;;12.90;99.90;;;;;;5135100;27;20415;-58
2023/10/29 06:12:18;;;;;;;0.40;0.20;;;12.90;1.00;;;;;;5134841;27;20427;-58
2023/10/29 06:14:46;;;;;;;0.30;0.20;;;13.00;99.90;;;;;;5135301;27;20513;-59
2023/10/29 06:17:13;;;;;;;0.40;0.20;;;13.00;99.90;;;;;;5135629;27;21476;-59
2023/10/29 06:19:41;;;;;;;0.50;0.20;;;13.00;99.90;;;;;;5135756;27;20441;-59
2023/10/29 06:22:08;;;;;;;1.80;0.20;;;13.00;1.00;;;;;;5135715;27;20422;-60
2023/10/29 06:24:36;;;;;;;0.60;0.20;;;13.00;99.90;;;;;;5135477;27;20524;-60
2023/10/29 06:27:04;;;;;;;0.50;0.20;;;13.10;99.90;;;;;;5135602;27;20418;-60
2023/10/29 06:29:31;;;;;;;0.50;0.20;;;13.10;1.00;;;;;;5135912;27;20857;-60
2023/10/29 06:31:58;;;;;;;0.70;0.30;;;13.10;1.00;;;;;;5133742;27;20425;-60
2023/10/29 06:34:25;;;;;;;0.90;0.30;;;13.10;6.10;;;;;;5134711;27;20410;-60
2023/10/29 06:36:52;;;;;;;0.80;0.30;;;13.10;1.00;;;;;;5135054;27;20701;-60
2023/10/29 06:39:19;;;;;;;1.10;0.28;;;13.10;40.00;;;;;;5134070;27;20437;-60
2023/10/29 06:41:47;;;;;;;0.50;0.20;;;13.10;1.00;;;;;;5135473;27;20426;-61
2023/10/29 06:44:14;;;;;;;0.50;0.22;;;13.10;99.90;;;;;;5135348;27;20422;-60
2023/10/29 06:46:41;;;;;;;0.50;0.22;;;13.10;99.90;;;;;;5134253;27;20418;-60
2023/10/29 06:49:09;;;;;;;0.50;0.20;;;13.10;1.00;;;;;;5135108;27;20414;-60
2023/10/29 06:51:36;;;;;;;0.70;0.20;;;13.20;4.60;;;;;;5134109;27;20427;-60
2023/10/29 06:54:05;;;;;;;0.43;0.20;;;13.20;99.90;;;;;;5132892;27;20422;-60
2023/10/29 06:56:32;;;;;;;0.40;0.20;;;13.20;1.00;;;;;;5130868;27;20418;-60
2023/10/29 06:59:00;;;;;;;0.60;0.20;;;13.20;1.00;;;;;;5130665;27;20426;-60
2023/10/29 07:01:27;;;;;;;0.50;0.20;;;13.30;1.00;;;;;;5130605;27;20850;-60
2023/10/29 07:03:55;;;;;;;0.40;0.20;;;13.40;99.90;;;;;;5134818;27;20768;-60
2023/10/29 07:06:22;;;;;;;0.50;0.20;;;13.40;1.00;;;;;;5135192;27;20418;-60
2023/10/29 07:08:49;;;;;;;0.40;0.20;;;13.60;1.00;;;;;;5133266;27;20877;-60
2023/10/29 07:11:16;;;;;;;0.60;0.30;;;13.60;1.00;;;;;;5134548;27;20441;-60
2023/10/29 07:13:43;;;;;;;0.40;0.20;;;13.70;99.90;;;;;;5134689;27;20419;-60
2023/10/29 07:16:12;;;;;;;0.50;0.20;;;13.80;99.90;;;;;;5134772;27;20838;-60
2023/10/29 07:18:39;;;;;;;0.40;0.20;;;13.90;56.20;;;;;;5133629;27;20738;-60
2023/10/29 07:21:06;;;;;;;0.50;0.20;;;13.90;99.90;;;;;;5131078;27;20686;-60
2023/10/29 07:23:33;;;;;;;0.50;0.30;;;14.00;1.00;;;;;;5131481;27;20447;-60
2023/10/29 07:26:00;;;;;;;0.50;0.20;;;14.10;99.90;;;;;;5131864;27;20834;-58
2023/10/29 07:28:28;;;;;;;0.95;0.20;;;14.10;1.00;;;;;;5131683;27;20855;-58
2023/10/29 07:30:55;;;;;;;0.50;0.20;;;14.10;99.90;;;;;;5132706;27;20429;-58
2023/10/29 07:33:24;;;;;;;1.30;0.20;;;14.20;1.00;;;;;;5133446;27;20502;-58
2023/10/29 07:35:51;;;;;;;0.40;0.20;;;14.20;1.00;;;;;;5133809;27;20426;-58
2023/10/29 07:38:18;;;;;;;0.50;0.20;;;14.20;1.00;;;;;;5134697;27;20918;-58
2023/10/29 07:40:45;;;;;;;0.40;0.20;;;14.30;1.00;;;;;;5135473;27;20418;-58
2023/10/29 07:43:12;;;;;;;0.40;0.20;;;14.30;99.90;;;;;;5135760;27;20422;-58
2023/10/29 07:45:39;;;;;;;0.52;0.20;;;14.20;99.90;;;;;;5135014;27;20410;-58
2023/10/29 07:48:06;;;;;;;1.05;0.20;;;14.30;1.00;;;;;;5133749;27;20417;-58
2023/10/29 07:50:34;;;;;;;1.30;0.20;;;14.30;99.90;;;;;;5133291;27;20950;-59
2023/10/29 07:53:02;;;;;;;0.50;0.20;;;14.30;1.00;;;;;;5133985;27;21030;-58
2023/10/29 07:55:29;;;;;;;0.40;0.20;;;14.30;99.90;;;;;;5132746;27;20441;-57
2023/10/29 07:57:56;;;;;;;0.70;0.20;;;14.30;99.90;;;;;;5135560;27;20432;-58
2023/10/29 08:00:23;;;;;;;0.40;0.20;;;14.40;1.00;;;;;;5137273;27;20415;-58
2023/10/29 08:02:50;;;;;;;0.40;0.20;;;14.50;99.90;;;;;;5136045;27;20837;-58
2023/10/29 08:05:17;;;;;;;0.47;0.30;;;14.60;1.00;;;;;;5135686;27;20421;-58
2023/10/29 08:07:46;;;;;;;0.40;0.20;;;14.70;1.00;;;;;;5137339;27;20411;-58
2023/10/29 08:10:13;;;;;;;0.50;0.20;;;14.70;1.00;;;;;;5137115;27;20414;-59
2023/10/29 08:12:40;;;;;;;0.80;0.20;;;14.70;1.00;;;;;;5137610;27;21034;-58
2023/10/29 08:15:08;;;;;;;0.50;0.25;;;14.70;99.90;;;;;;5137608;27;20427;-58
2023/10/29 08:17:36;;;;;;;0.57;0.20;;;14.80;99.90;;;;;;5136715;27;20720;-59
2023/10/29 08:20:04;;;;;;;0.63;0.20;;;14.90;37.10;;;;;;5136817;27;20447;-59
2023/10/29 08:22:31;;;;;;;1.20;0.20;;;14.90;99.90;;;;;;5136868;27;20411;-59
2023/10/29 08:25:00;;;;;;;0.50;0.20;;;15.00;1.00;;;;;;5136830;27;20418;-59
2023/10/29 08:27:27;;;;;;;0.90;0.20;;;15.10;15.70;;;;;;5138058;27;20458;-59
2023/10/29 08:29:55;;;;;;;0.55;0.30;;;15.10;99.90;;;;;;5137113;27;20584;-58
2023/10/29 08:32:22;;;;;;;1.60;0.40;;;15.20;34.20;;;;;;5136144;27;20462;-59
2023/10/29 08:34:49;;;;;;;0.40;0.20;;;15.20;1.00;;;;;;5135856;27;20420;-59
2023/10/29 08:37:17;;;;;;;0.40;0.20;;;15.10;99.90;;;;;;5135894;27;20419;-59
2023/10/29 08:39:44;;;;;;;0.60;0.30;;;15.10;1.00;;;;;;5135571;27;20437;-59
2023/10/29 08:42:12;;;;;;;0.50;0.20;;;15.10;1.00;;;;;;5135680;27;20422;-59
2023/10/29 08:44:39;;;;;;;0.60;0.30;;;15.20;99.90;;;;;;5136933;27;20419;-59
2023/10/29 08:47:07;;;;;;;0.50;0.20;;;15.40;1.00;;;;;;5136570;27;20411;-59
2023/10/29 08:49:34;;;;;;;0.50;0.25;;;15.40;99.90;;;;;;5136009;27;20418;-59
2023/10/29 08:52:01;;;;;;;0.50;0.20;;;15.40;99.90;;;;;;5132624;27;20436;-59
2023/10/29 08:54:28;;;;;;;0.40;0.20;;;15.50;1.00;;;;;;5136266;27;20430;-59
2023/10/29 08:56:55;;;;;;;0.60;0.30;;;15.40;1.00;;;;;;5136427;27;20434;-59
2023/10/29 08:59:24;;;;;;;0.98;0.30;;;15.40;99.90;;;;;;5137003;27;20723;-59
2023/10/29 09:01:52;;;;;;;0.70;0.30;;;15.50;1.00;;;;;;5137169;27;20480;-59
2023/10/29 09:04:20;;;;;;;0.80;0.30;;;15.60;1.00;;;;;;5137057;27;20880;-59
2023/10/29 09:06:47;;;;;;;1.00;0.30;;;15.60;99.90;;;;;;5135067;27;20849;-59
2023/10/29 09:09:14;;;;;;;0.60;0.30;;;15.60;99.90;;;;;;5135236;27;20426;-59
2023/10/29 09:11:43;;;;;;;0.60;0.30;;;15.70;1.00;;;;;;5135786;27;20426;-59
2023/10/29 09:14:11;;;;;;;0.90;0.30;;;15.60;99.90;;;;;;5136415;27;20421;-59
2023/10/29 09:16:39;;;;;;;0.70;0.30;;;15.60;1.00;;;;;;5136979;27;20414;-59
2023/10/29 09:19:06;;;;;;;0.63;0.30;;;15.60;1.00;;;;;;5137313;27;20441;-59
2023/10/29 09:21:34;;;;;;;0.60;0.30;;;15.70;1.00;;;;;;5137239;27;20425;-59
2023/10/29 09:24:02;;;;;;;0.70;0.30;;;15.70;99.90;;;;;;5136752;27;20842;-59
2023/10/29 09:26:29;;;;;;;0.70;0.30;;;15.70;1.00;;;;;;5133924;27;20434;-59
2023/10/29 09:28:56;;;;;;;0.50;0.30;;;15.60;1.00;;;;;;5135136;27;20438;-59
2023/10/29 09:31:23;;;;;;;1.00;0.30;;;15.70;1.00;;;;;;5134790;27;20753;-59
2023/10/29 09:33:51;;;;;;;0.70;0.30;;;15.70;1.00;;;;;;5132376;27;20426;-59
2023/10/29 09:36:19;;;;;;;0.57;0.30;;;15.70;1.00;;;;;;5133445;27;20775;-59
2023/10/29 09:38:46;;;;;;;0.50;0.30;;;15.70;99.90;;;;;;5134806;27;20466;-59
2023/10/29 09:41:16;;;;;;;1.80;0.30;;;15.60;1.00;;;;;;5133479;27;21459;-59
2023/10/29 09:43:44;;;;;;;0.90;0.30;;;15.50;1.00;;;;;;5133838;27;20422;-59
2023/10/29 09:46:12;;;;;;;0.40;0.20;;;15.40;1.00;;;;;;5135464;27;20445;-59
2023/10/29 09:48:39;;;;;;;0.80;0.30;;;15.30;1.00;;;;;;5136292;27;20860;-59
2023/10/29 09:51:08;;;;;;;0.82;0.30;;;15.40;99.90;;;;;;5137001;27;20429;-59
2023/10/29 09:53:36;;;;;;;1.40;0.30;;;15.50;1.00;;;;;;5133921;27;20434;-60
2023/10/29 09:56:06;;;;;;;1.47;0.30;;;15.60;99.90;;;;;;5132707;27;20446;-59
2023/10/29 09:58:34;;;;;;;1.20;0.90;;;15.70;99.90;;;;;;5133869;27;20426;-59
2023/10/29 10:01:03;;;;;;;0.68;0.30;;;15.80;1.00;;;;;;5133164;27;20427;-59
2023/10/29 10:03:30;;;;;;;0.50;0.30;;;16.00;1.00;;;;;;5133314;27;20422;-59
2023/10/29 10:05:58;;;;;;;0.70;0.30;;;16.00;1.00;;;;;;5135388;27;20441;-59
2023/10/29 10:08:27;;;;;;;0.50;0.30;;;16.10;1.00;;;;;;5135907;27;20422;-59
2023/10/29 10:10:55;;;;;;;0.50;0.30;;;16.20;1.00;;;;;;5135321;27;20721;-59
2023/10/29 10:13:36;;;;;;;0.50;0.30;;;16.20;99.90;;;;;;5134988;27;20414;-60
2023/10/29 10:16:08;;;;;;;0.50;0.30;;;16.10;99.90;;;;;;5134405;27;20872;-59
2023/10/29 10:18:48;;;;;;;0.60;0.30;;;16.10;99.70;;;;;;5132283;27;20515;-60
2023/10/29 10:21:16;;;;;;;0.60;0.30;;;16.10;1.00;;;;;;5136501;27;20427;-59
2023/10/29 10:23:52;;;;;;;0.95;0.30;;;16.20;1.00;;;;;;5131821;27;20425;-59
2023/10/29 10:26:28;;;;;;;0.50;0.30;;;16.20;99.90;;;;;;5132167;27;20426;-59
2023/10/29 10:28:56;;;;;;;0.70;0.30;;;16.30;99.90;;;;;;5131596;27;20569;-59
2023/10/29 10:31:25;;;;;;;1.80;0.40;;;16.20;1.00;;;;;;5131334;27;20407;-60
2023/10/29 10:34:09;;;;;;;0.60;0.30;;;16.30;1.00;;;;;;5131839;27;20449;-59
2023/10/29 10:36:36;;;;;;;0.80;0.40;;;16.30;1.00;;;;;;5131043;27;20458;-59
2023/10/29 10:39:05;;;;;;;0.80;0.40;;;16.30;99.90;;;;;;5131126;27;20776;-59
2023/10/29 10:41:49;;;;;;;1.05;0.40;;;16.20;99.90;;;;;;5132638;27;20854;-59
2023/10/29 10:44:19;;;;;;;0.98;0.40;;;16.20;99.90;;;;;;5134158;27;20444;-59
2023/10/29 10:46:49;;;;;;;1.40;0.40;;;16.20;99.90;;;;;;5128735;27;20470;-59
2023/10/29 10:49:16;;;;;;;0.50;0.30;;;16.20;99.90;;;;;;5154689;27;20870;-60
2023/10/29 10:51:44;;;;;;;0.50;0.30;;;16.20;99.90;;;;;;5145251;27;20442;-60
2023/10/29 10:54:13;;;;;;;0.80;0.40;;;16.20;99.90;;;;;;5134018;27;20434;-60
2023/10/29 10:56:40;;;;;;;0.93;0.32;;;16.20;99.90;;;;;;5138362;27;20446;-60
2023/10/29 10:59:09;;;;;;;0.60;0.40;;;16.20;99.90;;;;;;5154008;27;20429;-60
2023/10/29 11:01:38;;;;;;;0.60;0.30;;;16.20;99.90;;;;;;5155617;27;20797;-60
2023/10/29 11:04:07;;;;;;;0.63;0.40;;;16.30;99.90;;;;;;5135073;27;20472;-61
2023/10/29 11:06:36;;;;;;;0.60;0.40;;;16.30;99.90;;;;;;5134002;27;20477;-60
2023/10/29 11:09:05;;;;;;;0.60;0.30;;;16.30;99.90;;;;;;5134650;27;20425;-59
2023/10/29 11:11:37;;;;;;;0.63;0.40;;;16.30;99.90;;;;;;5134811;27;20422;-60
2023/10/29 11:14:11;;;;;;;1.37;0.40;;;16.30;99.90;;;;;;5129261;27;20454;-59
2023/10/29 11:16:53;;;;;;;0.70;0.40;;;16.40;99.90;;;;;;5130673;27;20979;-59
2023/10/29 11:19:50;;;;;;;0.90;0.40;;;16.50;99.90;;;;;;5129073;27;20906;-59
2023/10/29 11:22:18;;;;;;;1.48;0.50;;;16.60;99.90;;;;;;5028288;28;20502;-60
2023/10/29 11:25:08;;;;;;;1.10;0.60;;;16.70;99.90;;;;;;5110142;27;20434;-60
2023/10/29 11:27:38;;;;;;;1.55;0.40;;;16.80;99.90;;;;;;5133020;27;20433;-61
2023/10/29 11:30:13;;;;;;;0.80;0.50;;;16.90;99.90;;;;;;5132474;27;20517;-59
2023/10/29 11:32:41;;;;;;;0.90;0.40;;;16.90;99.90;;;;;;5132065;27;20434;-60
2023/10/29 11:35:24;;;;;;;1.08;0.43;;;16.80;99.90;;;;;;5137152;27;20414;-59
2023/10/29 11:37:53;;;;;;;1.20;0.43;;;16.90;99.90;;;;;;5136180;27;20512;-58
2023/10/29 11:40:34;;;;;;;1.40;0.50;;;17.10;99.90;;;;;;5134260;27;20425;-59
2023/10/29 11:43:20;;;;;;;1.02;0.50;;;17.20;1.00;;;;;;5132825;27;20464;-59
2023/10/29 11:45:57;;;;;;;0.70;0.40;;;17.30;1.00;;;;;;5138106;27;20442;-59
2023/10/29 11:48:25;;;;;;;1.60;0.40;;;17.40;1.00;;;;;;5135518;27;20822;-59
2023/10/29 11:51:20;;;;;;;0.60;0.40;;;17.60;1.00;;;;;;5136138;27;20924;-59
2023/10/29 11:53:48;;;;;;;1.90;0.40;;;17.60;41.60;;;;;;5092946;27;20442;-58
2023/10/29 11:56:17;;;;;;;1.30;0.40;;;17.60;99.90;;;;;;5134412;27;20426;-59
2023/10/29 11:58:45;;;;;;;0.70;0.40;;;17.70;99.90;;;;;;5134749;27;20425;-59
2023/10/29 12:01:19;;;;;;;0.90;0.40;;;17.80;1.00;;;;;;5134221;27;20865;-59
2023/10/29 12:03:56;;;;;;;0.70;0.40;;;17.80;99.90;;;;;;5137276;27;20430;-58
2023/10/29 12:06:41;;;;;;;1.50;0.50;;;18.00;99.90;;;;;;5138272;27;20437;-59
2023/10/29 12:09:19;;;;;;;0.90;0.30;;;18.20;99.90;;;;;;5134577;27;20875;-60
2023/10/29 12:11:46;;;;;;;0.90;0.40;;;18.40;1.00;;;;;;5131882;27;20442;-60
2023/10/29 12:14:15;;;;;;;0.60;0.30;;;18.50;99.90;;;;;;5136452;27;20745;-59
2023/10/29 12:16:42;;;;;;;0.52;0.30;;;18.70;99.90;;;;;;5134911;27;20425;-59
2023/10/29 12:19:09;;;;;;;0.40;0.20;;;18.90;99.90;;;;;;5134470;27;20515;-59
2023/10/29 12:21:36;;;;;;;2.00;0.30;;;19.10;99.90;;;;;;5132484;27;20455;-59
2023/10/29 12:24:05;;;;;;;0.40;0.20;;;19.20;48.10;;;;;;5124615;27;20640;-59
2023/10/29 12:26:33;;;;;;;0.50;0.20;;;19.30;10.40;;;;;;5133372;27;20506;-59
2023/10/29 12:29:00;;;;;;;1.10;0.30;;;19.50;1.00;;;;;;5132295;27;20424;-59
2023/10/29 12:31:29;;;;;;;0.50;0.20;;;19.50;1.00;;;;;;5133194;27;20897;-59
2023/10/29 12:33:57;;;;;;;0.47;0.20;;;19.50;1.00;;;;;;5131345;27;20873;-59
2023/10/29 12:36:25;;;;;;;0.60;0.20;;;19.50;1.00;;;;;;5129716;27;20426;-59
2023/10/29 12:38:53;;;;;;;1.00;0.20;;;19.50;1.00;;;;;;5134566;27;20464;-59
2023/10/29 12:41:23;;;;;;;0.90;0.20;;;19.60;1.00;;;;;;5134003;27;20456;-60
2023/10/29 12:43:53;;;;;;;0.60;0.20;;;19.60;1.00;;;;;;5134682;27;20415;-59
2023/10/29 12:46:21;;;;;;;0.80;0.20;;;19.60;1.00;;;;;;5134259;27;20415;-59
2023/10/29 12:49:00;;;;;;;0.40;0.20;;;19.70;1.00;;;;;;5130964;27;20434;-59
2023/10/29 12:51:30;;;;;;;0.50;0.20;;;19.80;1.00;;;;;;5134716;27;20422;-59
2023/10/29 12:54:13;;;;;;;0.40;0.20;;;19.80;1.00;;;;;;5136610;27;20487;-59
2023/10/29 12:56:54;;;;;;;0.40;0.20;;;19.90;1.00;;;;;;5116577;27;20523;-59
2023/10/29 12:59:21;;;;;;;0.40;0.20;;;19.90;1.00;;;;;;5133306;27;20844;-59